createdAt,value
2022-11-13T00:01:28.298Z,7.60
2022-11-13T00:04:13.698Z,8.07
2022-11-13T00:06:59.782Z,7.40
2022-11-13T00:09:45.712Z,7.28
2022-11-13T00:12:31.181Z,7.57
2022-11-13T00:15:16.908Z,7.78
2022-11-13T00:18:03.191Z,7.55
2022-11-13T00:20:48.642Z,7.00
2022-11-13T00:23:35.537Z,7.45
2022-11-13T00:26:24.701Z,6.82
2022-11-13T00:29:11.082Z,6.55
2022-11-13T00:31:56.625Z,6.65
2022-11-13T00:34:47.560Z,6.53
2022-11-13T00:37:33.888Z,6.63
2022-11-13T00:40:19.355Z,7.07
2022-11-13T00:43:04.987Z,6.25
2022-11-13T00:45:50.825Z,6.35
2022-11-13T00:48:36.789Z,6.65
2022-11-13T00:51:23.013Z,6.38
2022-11-13T00:54:08.208Z,6.20
2022-11-13T00:56:53.627Z,6.25
2022-11-13T00:59:39.103Z,6.47
2022-11-13T01:02:24.496Z,6.63
2022-11-13T01:05:09.972Z,6.20
2022-11-13T01:07:55.551Z,6.20
2022-11-13T01:10:53.341Z,6.05
2022-11-13T01:13:40.854Z,5.93
2022-11-13T01:16:27.914Z,5.93
2022-11-13T01:19:13.131Z,5.85
2022-11-13T01:21:58.666Z,5.93
2022-11-13T01:24:44.170Z,5.72
2022-11-13T01:27:29.701Z,6.10
2022-11-13T01:30:15.452Z,6.18
2022-11-13T01:33:00.883Z,6.03
2022-11-13T01:35:46.464Z,6.07
2022-11-13T01:38:36.189Z,5.47
2022-11-13T01:41:25.950Z,5.45
2022-11-13T01:44:17.163Z,5.65
2022-11-13T01:47:04.302Z,6.25
2022-11-13T01:49:54.350Z,5.70
2022-11-13T01:52:41.514Z,5.70
2022-11-13T01:55:27.220Z,5.85
2022-11-13T01:58:13.861Z,5.15
2022-11-13T02:00:59.274Z,5.25
2022-11-13T02:03:44.436Z,5.25
2022-11-13T02:06:36.801Z,5.53
2022-11-13T02:09:26.370Z,5.43
2022-11-13T02:12:14.940Z,5.63
2022-11-13T02:15:02.906Z,5.45
2022-11-13T02:17:57.362Z,5.25
2022-11-13T02:21:01.959Z,6.25
2022-11-13T02:23:57.061Z,5.65
2022-11-13T02:26:43.628Z,5.72
2022-11-13T02:29:28.946Z,6.47
2022-11-13T02:32:14.236Z,5.88
2022-11-13T02:34:59.602Z,5.35
2022-11-13T02:37:45.081Z,6.03
2022-11-13T02:40:32.204Z,6.10
2022-11-13T02:43:17.420Z,5.82
2022-11-13T02:46:02.799Z,5.32
2022-11-13T02:48:48.460Z,5.13
2022-11-13T02:51:33.638Z,5.50
2022-11-13T02:54:19.119Z,5.20
2022-11-13T02:57:04.620Z,5.55
2022-11-13T02:59:50.132Z,5.68
2022-11-13T03:02:35.510Z,6.28
2022-11-13T03:05:20.957Z,5.32
2022-11-13T03:08:06.922Z,5.45
2022-11-13T03:10:53.430Z,5.45
2022-11-13T03:13:39.116Z,5.45
2022-11-13T03:16:24.501Z,5.05
2022-11-13T03:19:10.028Z,4.97
2022-11-13T03:21:55.638Z,5.55
2022-11-13T03:24:41.237Z,5.30
2022-11-13T03:27:26.765Z,4.93
2022-11-13T03:30:12.448Z,5.40
2022-11-13T03:32:58.085Z,5.03
2022-11-13T03:35:46.893Z,5.18
2022-11-13T03:38:33.311Z,5.00
2022-11-13T03:41:18.914Z,5.20
2022-11-13T03:44:04.370Z,5.47
2022-11-13T03:46:49.490Z,5.00
2022-11-13T03:49:34.987Z,5.28
2022-11-13T03:52:20.341Z,5.18
2022-11-13T03:55:06.214Z,5.20
2022-11-13T03:57:51.843Z,5.28
2022-11-13T04:00:40.319Z,4.65
2022-11-13T04:03:25.764Z,4.97
2022-11-13T04:06:11.363Z,4.13
2022-11-13T04:08:57.561Z,4.57
2022-11-13T04:11:42.844Z,4.90
2022-11-13T04:14:28.293Z,4.72
2022-11-13T04:17:13.745Z,4.50
2022-11-13T04:19:59.280Z,4.10
2022-11-13T04:22:44.723Z,4.50
2022-11-13T04:25:30.361Z,4.82
2022-11-13T04:28:15.648Z,4.90
2022-11-13T04:31:01.142Z,4.53
2022-11-13T04:33:46.354Z,4.53
2022-11-13T04:36:31.907Z,5.25
2022-11-13T04:39:17.468Z,4.88
2022-11-13T04:42:21.191Z,5.35
2022-11-13T04:45:07.125Z,4.97
2022-11-13T04:47:52.655Z,4.90
2022-11-13T04:50:38.175Z,5.40
2022-11-13T04:53:23.761Z,4.68
2022-11-13T04:56:09.224Z,4.70
2022-11-13T04:58:54.670Z,4.85
2022-11-13T05:01:40.322Z,5.13
2022-11-13T05:04:25.759Z,4.70
2022-11-13T05:07:12.046Z,4.72
2022-11-13T05:09:57.617Z,4.78
2022-11-13T05:12:43.030Z,3.90
2022-11-13T05:15:28.465Z,4.70
2022-11-13T05:18:14.357Z,4.47
2022-11-13T05:21:00.285Z,4.80
2022-11-13T05:23:45.619Z,4.47
2022-11-13T05:26:31.863Z,5.13
2022-11-13T05:29:17.257Z,4.10
2022-11-13T05:32:02.462Z,3.97
2022-11-13T05:34:48.027Z,4.60
2022-11-13T05:37:33.467Z,4.57
2022-11-13T05:40:19.022Z,4.60
2022-11-13T05:43:04.559Z,4.57
2022-11-13T05:45:49.830Z,3.97
2022-11-13T05:48:35.759Z,3.67
2022-11-13T05:51:23.744Z,4.13
2022-11-13T05:54:09.067Z,4.32
2022-11-13T05:56:54.764Z,4.05
2022-11-13T05:59:40.117Z,4.15
2022-11-13T06:02:25.457Z,4.00
2022-11-13T06:05:11.307Z,4.18
2022-11-13T06:07:56.766Z,3.78
2022-11-13T06:10:42.361Z,3.90
2022-11-13T06:13:28.207Z,3.97
2022-11-13T06:16:22.489Z,4.53
2022-11-13T06:19:09.921Z,4.63
2022-11-13T06:21:55.507Z,3.92
2022-11-13T06:24:40.970Z,3.90
2022-11-13T06:27:28.111Z,3.63
2022-11-13T06:30:14.104Z,4.10
2022-11-13T06:32:59.557Z,4.05
2022-11-13T06:35:45.237Z,3.78
2022-11-13T06:38:35.639Z,4.25
2022-11-13T06:41:24.362Z,3.70
2022-11-13T06:44:10.191Z,3.83
2022-11-13T06:46:55.870Z,4.00
2022-11-13T06:49:41.229Z,3.75
2022-11-13T06:52:26.621Z,3.90
2022-11-13T06:55:12.435Z,3.85
2022-11-13T06:57:57.814Z,4.07
2022-11-13T07:00:43.895Z,3.83
2022-11-13T07:03:29.306Z,4.15
2022-11-13T07:06:20.774Z,4.68
2022-11-13T07:09:06.574Z,4.40
2022-11-13T07:11:51.909Z,4.82
2022-11-13T07:14:37.326Z,4.13
2022-11-13T07:17:22.961Z,4.20
2022-11-13T07:20:08.579Z,4.13
2022-11-13T07:22:58.573Z,3.97
2022-11-13T07:25:43.883Z,3.92
2022-11-13T07:28:29.773Z,4.03
2022-11-13T07:31:17.311Z,3.75
2022-11-13T07:34:02.948Z,4.47
2022-11-13T07:36:48.128Z,3.80
2022-11-13T07:39:33.606Z,3.58
2022-11-13T07:42:19.023Z,3.88
2022-11-13T07:45:05.908Z,4.78
2022-11-13T07:47:51.517Z,4.47
2022-11-13T07:50:38.658Z,4.15
2022-11-13T07:53:23.842Z,3.67
2022-11-13T07:56:09.429Z,4.30
2022-11-13T07:58:54.754Z,3.67
2022-11-13T08:01:40.658Z,3.92
2022-11-13T08:04:26.043Z,3.60
2022-11-13T08:07:12.872Z,3.85
2022-11-13T08:09:58.578Z,3.65
2022-11-13T08:12:44.902Z,4.13
2022-11-13T08:15:31.438Z,5.85
2022-11-13T08:18:17.232Z,6.03
2022-11-13T08:21:04.564Z,6.95
2022-11-13T08:23:52.982Z,7.70
2022-11-13T08:26:39.921Z,6.45
2022-11-13T08:29:25.600Z,6.57
2022-11-13T08:32:13.884Z,7.35
2022-11-13T08:34:59.334Z,7.20
2022-11-13T08:37:44.740Z,7.38
2022-11-13T08:40:30.445Z,7.00
2022-11-13T08:43:16.235Z,7.35
2022-11-13T08:46:01.755Z,6.95
2022-11-13T08:48:47.119Z,5.38
2022-11-13T08:51:32.830Z,5.82
2022-11-13T08:54:21.119Z,6.95
2022-11-13T08:57:06.377Z,5.43
2022-11-13T08:59:51.873Z,5.15
2022-11-13T09:02:37.224Z,5.25
2022-11-13T09:05:23.594Z,5.35
2022-11-13T09:08:10.682Z,4.88
2022-11-13T09:10:56.307Z,5.18
2022-11-13T09:13:45.145Z,5.15
2022-11-13T09:16:32.977Z,5.20
2022-11-13T09:19:18.387Z,5.75
2022-11-13T09:22:03.811Z,7.30
2022-11-13T09:24:49.628Z,6.63
2022-11-13T09:27:34.930Z,7.47
2022-11-13T09:30:20.532Z,6.03
2022-11-13T09:33:06.686Z,6.40
2022-11-13T09:35:52.754Z,6.30
2022-11-13T09:38:38.886Z,5.57
2022-11-13T09:41:29.690Z,6.13
2022-11-13T09:44:29.461Z,5.65
2022-11-13T09:47:29.975Z,5.47
2022-11-13T09:50:22.078Z,5.45
2022-11-13T09:53:10.048Z,5.47
2022-11-13T09:56:18.704Z,5.78
2022-11-13T09:59:23.645Z,5.43
2022-11-13T10:02:20.839Z,5.45
2022-11-13T10:05:13.694Z,5.10
2022-11-13T10:08:17.853Z,4.65
2022-11-13T10:11:22.758Z,4.88
2022-11-13T10:14:29.255Z,4.88
2022-11-13T10:17:33.004Z,5.45
2022-11-13T10:20:54.218Z,5.13
2022-11-13T10:23:39.580Z,4.28
2022-11-13T10:26:28.737Z,4.35
2022-11-13T10:29:17.691Z,4.50
2022-11-13T10:32:18.370Z,4.60
2022-11-13T10:35:06.661Z,5.80
2022-11-13T10:38:25.584Z,5.90
2022-11-13T10:41:16.494Z,4.60
2022-11-13T10:44:07.054Z,4.97
2022-11-13T10:47:03.966Z,3.92
2022-11-13T10:49:51.715Z,3.45
2022-11-13T10:52:46.708Z,3.95
2022-11-13T10:55:40.266Z,3.25
2022-11-13T10:58:26.027Z,3.97
2022-11-13T11:01:23.997Z,4.05
2022-11-13T11:04:29.728Z,4.35
2022-11-13T11:07:21.796Z,3.80
2022-11-13T11:10:31.083Z,3.38
2022-11-13T11:13:22.918Z,3.85
2022-11-13T11:16:11.770Z,3.53
2022-11-13T11:19:04.726Z,4.22
2022-11-13T11:21:53.798Z,3.97
2022-11-13T11:24:46.190Z,4.13
2022-11-13T11:27:45.943Z,3.80
2022-11-13T11:30:49.692Z,3.75
2022-11-13T11:33:52.613Z,3.83
2022-11-13T11:37:17.042Z,4.05
2022-11-13T11:40:15.316Z,4.00
2022-11-13T11:43:37.445Z,4.18
2022-11-13T11:46:24.496Z,3.45
2022-11-13T11:49:10.978Z,4.30
2022-11-13T11:52:05.309Z,3.92
2022-11-13T11:55:18.910Z,3.15
2022-11-13T11:58:10.290Z,3.20
2022-11-13T12:01:04.969Z,3.65
2022-11-13T12:03:56.273Z,3.28
2022-11-13T12:06:42.082Z,3.28
2022-11-13T12:10:02.341Z,3.03
2022-11-13T12:13:06.580Z,2.80
2022-11-13T12:16:01.205Z,3.38
2022-11-13T12:18:46.456Z,3.80
2022-11-13T12:22:04.535Z,3.35
2022-11-13T12:24:55.347Z,3.38
2022-11-13T12:28:02.269Z,3.30
2022-11-13T12:31:39.026Z,3.25
2022-11-13T12:34:28.768Z,3.10
2022-11-13T12:37:37.340Z,6.40
2022-11-13T12:40:33.318Z,6.25
2022-11-13T12:43:49.644Z,4.43
2022-11-13T12:46:42.237Z,4.38
2022-11-13T12:49:35.837Z,4.38
2022-11-13T12:52:24.374Z,3.95
2022-11-13T12:55:40.625Z,3.83
2022-11-13T12:58:29.099Z,4.28
2022-11-13T13:01:18.695Z,3.90
2022-11-13T13:04:36.324Z,3.33
2022-11-13T13:08:03.608Z,3.35
2022-11-13T13:11:13.589Z,3.53
2022-11-13T13:14:33.492Z,3.53
2022-11-13T13:17:22.029Z,3.30
2022-11-13T13:20:16.035Z,3.40
2022-11-13T13:23:06.010Z,3.40
2022-11-13T13:26:05.191Z,3.45
2022-11-13T13:28:56.219Z,3.08
2022-11-13T13:31:52.972Z,3.45
2022-11-13T13:35:14.810Z,3.60
2022-11-13T13:38:23.873Z,3.22
2022-11-13T13:41:17.929Z,2.85
2022-11-13T13:44:22.087Z,3.40
2022-11-13T13:47:19.421Z,3.22
2022-11-13T13:50:07.929Z,3.03
2022-11-13T13:52:56.116Z,3.40
2022-11-13T13:55:48.228Z,3.20
2022-11-13T13:58:36.772Z,3.00
2022-11-13T14:01:30.987Z,2.67
2022-11-13T14:04:22.273Z,2.83
2022-11-13T14:07:39.458Z,2.67
2022-11-13T14:10:28.134Z,2.83
2022-11-13T14:13:14.637Z,2.70
2022-11-13T14:16:07.184Z,3.30
2022-11-13T14:19:03.905Z,2.70
2022-11-13T14:21:52.108Z,2.50
2022-11-13T14:24:51.878Z,3.20
2022-11-13T14:27:37.967Z,2.92
2022-11-13T14:30:28.126Z,2.80
2022-11-13T14:33:21.936Z,2.58
2022-11-13T14:36:07.903Z,2.35
2022-11-13T14:38:53.469Z,2.58
2022-11-13T14:41:50.337Z,3.08
2022-11-13T14:44:35.917Z,2.40
2022-11-13T14:47:37.315Z,2.70
2022-11-13T14:50:36.540Z,2.90
2022-11-13T14:53:34.110Z,3.00
2022-11-13T14:56:19.466Z,2.83
2022-11-13T14:59:19.587Z,2.70
2022-11-13T15:02:06.911Z,2.90
2022-11-13T15:04:52.297Z,3.25
2022-11-13T15:07:42.083Z,2.25
2022-11-13T15:10:30.022Z,2.85
2022-11-13T15:13:16.992Z,3.25
2022-11-13T15:16:02.308Z,2.50
2022-11-13T15:18:54.617Z,2.45
2022-11-13T15:21:40.785Z,2.83
2022-11-13T15:24:26.409Z,2.42
2022-11-13T15:27:16.907Z,2.20
2022-11-13T15:30:02.227Z,2.28
2022-11-13T15:32:53.204Z,3.15
2022-11-13T15:35:38.626Z,2.83
2022-11-13T15:38:24.261Z,2.33
2022-11-13T15:41:15.146Z,3.03
2022-11-13T15:44:02.367Z,3.03
2022-11-13T15:46:47.941Z,4.20
2022-11-13T15:49:33.465Z,3.78
2022-11-13T15:52:19.595Z,3.45
2022-11-13T15:55:13.372Z,4.35
2022-11-13T15:57:59.724Z,4.85
2022-11-13T16:00:46.073Z,5.22
2022-11-13T16:03:34.448Z,5.43
2022-11-13T16:06:23.946Z,5.50
2022-11-13T16:09:15.388Z,5.28
2022-11-13T16:12:01.599Z,5.78
2022-11-13T16:14:47.352Z,6.15
2022-11-13T16:17:39.426Z,6.00
2022-11-13T16:20:24.649Z,8.18
2022-11-13T16:23:15.850Z,6.13
2022-11-13T16:26:04.520Z,6.63
2022-11-13T16:29:12.684Z,6.60
2022-11-13T16:31:58.134Z,6.70
2022-11-13T16:34:44.322Z,7.22
2022-11-13T16:37:29.960Z,5.80
2022-11-13T16:40:21.177Z,7.28
2022-11-13T16:43:06.542Z,6.60
2022-11-13T16:45:52.925Z,6.32
2022-11-13T16:48:38.611Z,6.80
2022-11-13T16:51:24.283Z,6.45
2022-11-13T16:54:09.397Z,8.38
2022-11-13T16:56:54.858Z,6.82
2022-11-13T16:59:40.875Z,7.72
2022-11-13T17:02:26.271Z,9.10
2022-11-13T17:05:16.045Z,9.40
2022-11-13T17:08:01.870Z,9.88
2022-11-13T17:10:55.618Z,8.65
2022-11-13T17:13:40.875Z,7.75
2022-11-13T17:16:28.439Z,8.65
2022-11-13T17:19:14.474Z,9.93
2022-11-13T17:22:00.032Z,9.13
2022-11-13T17:24:45.704Z,9.70
2022-11-13T17:27:31.295Z,8.80
2022-11-13T17:30:17.131Z,10.30
2022-11-13T17:33:02.702Z,9.75
2022-11-13T17:35:54.352Z,10.90
2022-11-13T17:38:40.104Z,10.75
2022-11-13T17:41:25.464Z,11.43
2022-11-13T17:44:10.742Z,11.07
2022-11-13T17:46:56.117Z,11.57
2022-11-13T17:49:41.477Z,11.20
2022-11-13T17:52:27.281Z,13.32
2022-11-13T17:55:14.225Z,11.77
2022-11-13T17:58:00.863Z,11.48
2022-11-13T18:00:46.400Z,12.32
2022-11-13T18:03:32.054Z,13.90
2022-11-13T18:06:19.999Z,16.45
2022-11-13T18:09:09.320Z,18.33
2022-11-13T18:11:54.705Z,17.30
2022-11-13T18:14:40.220Z,18.42
2022-11-13T18:17:26.009Z,15.05
2022-11-13T18:20:15.119Z,14.77
2022-11-13T18:23:01.193Z,16.70
2022-11-13T18:25:47.012Z,15.90
2022-11-13T18:28:32.317Z,18.15
2022-11-13T18:31:20.150Z,14.98
2022-11-13T18:34:07.476Z,15.43
2022-11-13T18:36:53.515Z,13.70
2022-11-13T18:39:38.925Z,14.90
2022-11-13T18:42:24.742Z,15.45
2022-11-13T18:45:11.949Z,15.27
2022-11-13T18:47:57.614Z,15.68
2022-11-13T18:50:43.298Z,15.50
2022-11-13T18:53:29.899Z,17.88
2022-11-13T18:56:27.136Z,16.80
2022-11-13T18:59:12.448Z,17.25
2022-11-13T19:01:57.874Z,18.05
2022-11-13T19:04:43.295Z,17.80
2022-11-13T19:07:28.722Z,17.80
2022-11-13T19:10:16.321Z,16.90
2022-11-13T19:13:01.570Z,18.33
2022-11-13T19:15:50.111Z,18.75
2022-11-13T19:18:37.449Z,17.42
2022-11-13T19:21:24.960Z,17.45
2022-11-13T19:24:11.843Z,19.80
2022-11-13T19:26:57.658Z,18.73
2022-11-13T19:29:42.939Z,17.45
2022-11-13T19:32:29.720Z,17.25
2022-11-13T19:35:15.180Z,17.90
2022-11-13T19:38:01.862Z,18.05
2022-11-13T19:40:50.115Z,19.67
2022-11-13T19:43:37.599Z,20.27
2022-11-13T19:46:22.854Z,18.50
2022-11-13T19:49:08.457Z,20.38
2022-11-13T19:51:54.868Z,20.20
2022-11-13T19:54:42.093Z,20.00
2022-11-13T19:57:27.270Z,17.45
2022-11-13T20:00:17.208Z,18.45
2022-11-13T20:03:07.309Z,17.20
2022-11-13T20:06:00.127Z,17.25
2022-11-13T20:08:45.488Z,16.65
2022-11-13T20:11:32.308Z,16.17
2022-11-13T20:14:17.943Z,15.50
2022-11-13T20:17:03.610Z,14.30
2022-11-13T20:19:49.294Z,15.70
2022-11-13T20:22:35.518Z,14.85
2022-11-13T20:25:21.282Z,14.68
2022-11-13T20:28:06.355Z,15.00
2022-11-13T20:30:52.103Z,15.10
2022-11-13T20:33:37.454Z,13.93
2022-11-13T20:36:23.603Z,14.68
2022-11-13T20:39:09.592Z,15.13
2022-11-13T20:41:55.410Z,12.75
2022-11-13T20:44:41.170Z,13.70
2022-11-13T20:47:27.827Z,13.88
2022-11-13T20:50:13.167Z,13.50
2022-11-13T20:52:58.614Z,13.13
2022-11-13T20:55:44.018Z,13.85
2022-11-13T20:58:31.308Z,13.57
2022-11-13T21:01:20.612Z,13.52
2022-11-13T21:04:06.205Z,12.63
2022-11-13T21:06:52.462Z,12.65
2022-11-13T21:09:38.371Z,12.88
2022-11-13T21:12:23.717Z,12.68
2022-11-13T21:15:09.572Z,14.05
2022-11-13T21:17:55.318Z,12.70
2022-11-13T21:20:42.562Z,14.20
2022-11-13T21:23:29.844Z,14.68
2022-11-13T21:26:15.930Z,15.10
2022-11-13T21:29:01.435Z,14.40
2022-11-13T21:31:47.989Z,13.82
2022-11-13T21:34:33.561Z,13.75
2022-11-13T21:37:18.993Z,13.65
2022-11-13T21:40:05.654Z,13.40
2022-11-13T21:42:50.906Z,14.13
2022-11-13T21:45:36.556Z,14.45
2022-11-13T21:48:22.248Z,13.90
2022-11-13T21:51:08.418Z,13.10
2022-11-13T21:53:53.759Z,13.13
2022-11-13T21:56:39.654Z,13.57
2022-11-13T21:59:25.244Z,12.98
2022-11-13T22:02:11.435Z,12.55
2022-11-13T22:04:56.711Z,12.20
2022-11-13T22:07:43.148Z,12.45
2022-11-13T22:10:28.532Z,12.30
2022-11-13T22:13:16.704Z,11.18
2022-11-13T22:16:06.917Z,11.68
2022-11-13T22:18:56.901Z,12.38
2022-11-13T22:21:42.982Z,11.80
2022-11-13T22:24:29.590Z,11.77
2022-11-13T22:27:14.829Z,11.05
2022-11-13T22:30:00.244Z,11.13
2022-11-13T22:32:54.483Z,11.45
2022-11-13T22:35:41.416Z,10.35
2022-11-13T22:38:27.255Z,9.52
2022-11-13T22:41:23.513Z,10.68
2022-11-13T22:44:14.329Z,10.02
2022-11-13T22:46:59.975Z,9.30
2022-11-13T22:49:45.412Z,9.85
2022-11-13T22:52:30.855Z,9.35
2022-11-13T22:55:16.343Z,9.18
2022-11-13T22:58:01.744Z,8.95
2022-11-13T23:00:47.506Z,10.88
2022-11-13T23:03:36.425Z,9.02
2022-11-13T23:06:24.634Z,9.73
2022-11-13T23:09:10.628Z,8.63
2022-11-13T23:11:55.784Z,8.77
2022-11-13T23:14:41.299Z,7.85
2022-11-13T23:17:26.825Z,8.73
2022-11-13T23:20:12.934Z,7.95
2022-11-13T23:22:58.426Z,21.67
2022-11-13T23:25:44.091Z,8.05
2022-11-13T23:28:29.557Z,7.63
2022-11-13T23:31:15.114Z,8.05
2022-11-13T23:34:00.174Z,7.72
2022-11-13T23:36:45.736Z,8.10
2022-11-13T23:39:31.237Z,8.18
2022-11-13T23:42:33.032Z,7.82
2022-11-13T23:45:22.171Z,7.60
2022-11-13T23:48:07.644Z,7.78
2022-11-13T23:50:53.209Z,8.52
2022-11-13T23:53:38.731Z,8.15
2022-11-13T23:56:24.148Z,7.97
2022-11-13T23:59:09.663Z,7.55
